sensor_id;sensor_type;location;lat;lon;timestamp;pressure;altitude;pressure_sealevel;temperature;humidity
788;BME280;16074;42.708;23.312;2023-03-13T00:02:07;138699.16;;;1.59;71.23
788;BME280;16074;42.708;23.312;2023-03-13T00:04:37;138696.78;;;1.58;71.07
788;BME280;16074;42.708;23.312;2023-03-13T00:07:05;138718.25;;;1.67;71.26
788;BME280;16074;42.708;23.312;2023-03-13T00:09:33;138714.69;;;1.65;71.47
788;BME280;16074;42.708;23.312;2023-03-13T00:12:01;138713.50;;;1.65;71.61
788;BME280;16074;42.708;23.312;2023-03-13T00:14:30;138682.44;;;1.52;71.67
788;BME280;16074;42.708;23.312;2023-03-13T00:16:58;138681.28;;;1.51;71.76
788;BME280;16074;42.708;23.312;2023-03-13T00:19:29;138675.28;;;1.49;72.50
788;BME280;16074;42.708;23.312;2023-03-13T00:21:58;138690.81;;;1.55;71.93
788;BME280;16074;42.708;23.312;2023-03-13T00:24:26;138717.09;;;1.66;72.11
788;BME280;16074;42.708;23.312;2023-03-13T00:26:54;138756.47;;;1.83;72.39
788;BME280;16074;42.708;23.312;2023-03-13T00:29:24;138715.88;;;1.66;71.05
788;BME280;16074;42.708;23.312;2023-03-13T00:31:52;138721.88;;;1.68;71.65
788;BME280;16074;42.708;23.312;2023-03-13T00:34:20;138707.53;;;1.62;71.36
788;BME280;16074;42.708;23.312;2023-03-13T00:36:49;138723.03;;;1.69;70.74
788;BME280;16074;42.708;23.312;2023-03-13T00:39:19;138750.47;;;1.80;71.79
788;BME280;16074;42.708;23.312;2023-03-13T00:41:47;138708.72;;;1.63;70.22
788;BME280;16074;42.708;23.312;2023-03-13T00:44:17;138695.59;;;1.57;71.24
788;BME280;16074;42.708;23.312;2023-03-13T00:46:46;138702.75;;;1.60;71.42
788;BME280;16074;42.708;23.312;2023-03-13T00:49:15;138683.66;;;1.52;70.50
788;BME280;16074;42.708;23.312;2023-03-13T00:51:43;138689.59;;;1.55;70.96
788;BME280;16074;42.708;23.312;2023-03-13T00:54:11;138649.06;;;1.38;70.91
788;BME280;16074;42.708;23.312;2023-03-13T00:56:41;138658.56;;;1.42;71.36
788;BME280;16074;42.708;23.312;2023-03-13T00:59:09;138693.22;;;1.56;71.74
788;BME280;16074;42.708;23.312;2023-03-13T01:01:37;138659.78;;;1.42;71.73
788;BME280;16074;42.708;23.312;2023-03-13T01:04:07;138692.00;;;1.56;71.95
788;BME280;16074;42.708;23.312;2023-03-13T01:06:37;138657.41;;;1.41;71.99
788;BME280;16074;42.708;23.312;2023-03-13T01:09:06;138645.47;;;1.36;71.35
788;BME280;16074;42.708;23.312;2023-03-13T01:11:36;138639.53;;;1.34;71.38
788;BME280;16074;42.708;23.312;2023-03-13T01:14:08;138629.97;;;1.30;72.15
788;BME280;16074;42.708;23.312;2023-03-13T01:16:37;138631.16;;;1.30;72.12
788;BME280;16074;42.708;23.312;2023-03-13T01:19:08;138658.56;;;1.42;71.88
788;BME280;16074;42.708;23.312;2023-03-13T01:21:39;138687.22;;;1.54;72.89
788;BME280;16074;42.708;23.312;2023-03-13T01:24:08;138717.09;;;1.66;72.60
788;BME280;16074;42.708;23.312;2023-03-13T01:26:36;138684.84;;;1.53;71.45
788;BME280;16074;42.708;23.312;2023-03-13T01:29:04;138680.06;;;1.51;72.66
788;BME280;16074;42.708;23.312;2023-03-13T01:31:34;138709.94;;;1.63;72.30
788;BME280;16074;42.708;23.312;2023-03-13T01:34:06;138725.44;;;1.70;72.91
788;BME280;16074;42.708;23.312;2023-03-13T01:36:35;138717.09;;;1.66;71.67
788;BME280;16074;42.708;23.312;2023-03-13T01:39:04;138681.28;;;1.51;71.93
788;BME280;16074;42.708;23.312;2023-03-13T01:41:34;138724.25;;;1.69;72.24
788;BME280;16074;42.708;23.312;2023-03-13T01:44:02;138749.31;;;1.80;72.49
788;BME280;16074;42.708;23.312;2023-03-13T01:46:35;138700.38;;;1.59;72.32
788;BME280;16074;42.708;23.312;2023-03-13T01:49:28;138730.19;;;1.72;71.39
788;BME280;16074;42.708;23.312;2023-03-13T01:52:24;138688.44;;;1.54;72.04
788;BME280;16074;42.708;23.312;2023-03-13T01:55:15;138723.03;;;1.69;71.91
788;BME280;16074;42.708;23.312;2023-03-13T01:57:49;138692.00;;;1.56;72.39
788;BME280;16074;42.708;23.312;2023-03-13T02:00:23;138702.75;;;1.60;72.86
788;BME280;16074;42.708;23.312;2023-03-13T02:02:55;138712.31;;;1.64;73.23
788;BME280;16074;42.708;23.312;2023-03-13T02:05:26;138686.06;;;1.53;73.37
788;BME280;16074;42.708;23.312;2023-03-13T02:07:59;138695.59;;;1.57;73.16
788;BME280;16074;42.708;23.312;2023-03-13T02:10:30;138676.50;;;1.49;75.15
788;BME280;16074;42.708;23.312;2023-03-13T02:13:01;138689.59;;;1.55;74.15
788;BME280;16074;42.708;23.312;2023-03-13T02:15:30;138671.72;;;1.47;75.24
788;BME280;16074;42.708;23.312;2023-03-13T02:17:59;138677.66;;;1.50;74.66
788;BME280;16074;42.708;23.312;2023-03-13T02:20:28;138659.78;;;1.42;76.60
788;BME280;16074;42.708;23.312;2023-03-13T02:22:59;138646.69;;;1.37;75.84
788;BME280;16074;42.708;23.312;2023-03-13T02:25:37;138639.53;;;1.34;75.66
788;BME280;16074;42.708;23.312;2023-03-13T02:28:11;138628.75;;;1.29;76.39
788;BME280;16074;42.708;23.312;2023-03-13T02:30:42;138639.53;;;1.34;76.65
788;BME280;16074;42.708;23.312;2023-03-13T02:33:11;138606.09;;;1.20;78.78
788;BME280;16074;42.708;23.312;2023-03-13T02:35:41;138609.66;;;1.21;78.90
788;BME280;16074;42.708;23.312;2023-03-13T02:38:16;138608.50;;;1.21;78.84
788;BME280;16074;42.708;23.312;2023-03-13T02:40:49;138553.59;;;0.98;80.08
788;BME280;16074;42.708;23.312;2023-03-13T02:43:22;138480.84;;;0.68;81.07
788;BME280;16074;42.708;23.312;2023-03-13T02:46:04;138426.03;;;0.45;82.54
788;BME280;16074;42.708;23.312;2023-03-13T02:48:37;138411.72;;;0.39;83.72
788;BME280;16074;42.708;23.312;2023-03-13T02:51:13;138436.75;;;0.49;84.06
788;BME280;16074;42.708;23.312;2023-03-13T02:53:43;138467.75;;;0.62;84.00
788;BME280;16074;42.708;23.312;2023-03-13T02:56:16;138453.44;;;0.56;84.28
788;BME280;16074;42.708;23.312;2023-03-13T02:58:48;138451.06;;;0.55;85.50
788;BME280;16074;42.708;23.312;2023-03-13T03:01:20;138453.44;;;0.56;85.95
788;BME280;16074;42.708;23.312;2023-03-13T03:03:49;138449.88;;;0.55;85.31
788;BME280;16074;42.708;23.312;2023-03-13T03:06:17;138399.81;;;0.34;85.72
788;BME280;16074;42.708;23.312;2023-03-13T03:08:46;138404.56;;;0.36;85.44
788;BME280;16074;42.708;23.312;2023-03-13T03:11:16;138417.66;;;0.41;85.80
788;BME280;16074;42.708;23.312;2023-03-13T03:13:49;138361.66;;;0.18;85.72
788;BME280;16074;42.708;23.312;2023-03-13T03:16:18;138356.88;;;0.16;86.84
788;BME280;16074;42.708;23.312;2023-03-13T03:18:47;138359.28;;;0.17;87.88
788;BME280;16074;42.708;23.312;2023-03-13T03:21:15;138344.97;;;0.11;87.50
788;BME280;16074;42.708;23.312;2023-03-13T03:23:43;138325.88;;;0.03;88.40
788;BME280;16074;42.708;23.312;2023-03-13T03:26:11;138336.66;;;0.07;88.22
788;BME280;16074;42.708;23.312;2023-03-13T03:28:41;138331.88;;;0.05;89.28
788;BME280;16074;42.708;23.312;2023-03-13T03:31:13;138310.44;;;-0.03;89.30
788;BME280;16074;42.708;23.312;2023-03-13T03:33:42;138302.09;;;-0.07;89.64
788;BME280;16074;42.708;23.312;2023-03-13T03:36:14;138323.50;;;0.02;90.56
788;BME280;16074;42.708;23.312;2023-03-13T03:38:44;138319.97;;;0.00;89.76
788;BME280;16074;42.708;23.312;2023-03-13T03:41:16;138300.88;;;-0.07;90.75
788;BME280;16074;42.708;23.312;2023-03-13T03:43:46;138308.03;;;-0.04;90.83
788;BME280;16074;42.708;23.312;2023-03-13T03:46:19;138328.28;;;0.04;90.10
788;BME280;16074;42.708;23.312;2023-03-13T03:48:47;138318.78;;;0.00;90.86
788;BME280;16074;42.708;23.312;2023-03-13T03:51:15;138321.13;;;0.01;91.59
788;BME280;16074;42.708;23.312;2023-03-13T03:53:45;138336.66;;;0.07;91.44
788;BME280;16074;42.708;23.312;2023-03-13T03:56:15;138343.81;;;0.10;91.08
788;BME280;16074;42.708;23.312;2023-03-13T03:58:49;138319.97;;;0.00;91.24
788;BME280;16074;42.708;23.312;2023-03-13T04:01:34;138321.13;;;0.01;91.16
788;BME280;16074;42.708;23.312;2023-03-13T04:04:04;138294.94;;;-0.10;91.64
788;BME280;16074;42.708;23.312;2023-03-13T04:06:32;138297.34;;;-0.09;91.67
788;BME280;16074;42.708;23.312;2023-03-13T04:09:03;138286.59;;;-0.13;92.31
788;BME280;16074;42.708;23.312;2023-03-13T04:11:32;138274.66;;;-0.18;92.47
788;BME280;16074;42.708;23.312;2023-03-13T04:14:02;138283.03;;;-0.15;92.60
788;BME280;16074;42.708;23.312;2023-03-13T04:16:30;138277.06;;;-0.17;92.93
788;BME280;16074;42.708;23.312;2023-03-13T04:18:59;138259.19;;;-0.25;92.05
788;BME280;16074;42.708;23.312;2023-03-13T04:21:28;138246.13;;;-0.30;93.11
788;BME280;16074;42.708;23.312;2023-03-13T04:24:01;138243.72;;;-0.31;93.51
788;BME280;16074;42.708;23.312;2023-03-13T04:26:30;138253.22;;;-0.27;93.14
788;BME280;16074;42.708;23.312;2023-03-13T04:29:00;138259.19;;;-0.25;93.24
788;BME280;16074;42.708;23.312;2023-03-13T04:31:50;138272.28;;;-0.19;92.78
788;BME280;16074;42.708;23.312;2023-03-13T04:34:27;138302.09;;;-0.07;92.36
788;BME280;16074;42.708;23.312;2023-03-13T04:37:23;138281.81;;;-0.15;92.42
788;BME280;16074;42.708;23.312;2023-03-13T04:40:20;138281.81;;;-0.15;92.77
788;BME280;16074;42.708;23.312;2023-03-13T04:42:48;138300.88;;;-0.07;92.48
788;BME280;16074;42.708;23.312;2023-03-13T04:45:55;138290.19;;;-0.12;92.75
788;BME280;16074;42.708;23.312;2023-03-13T04:48:41;138310.44;;;-0.03;92.34
788;BME280;16074;42.708;23.312;2023-03-13T04:51:24;138296.13;;;-0.09;92.24
788;BME280;16074;42.708;23.312;2023-03-13T04:54:22;138308.03;;;-0.04;92.27
788;BME280;16074;42.708;23.312;2023-03-13T04:57:06;138311.63;;;-0.03;92.45
788;BME280;16074;42.708;23.312;2023-03-13T05:00:00;138290.19;;;-0.12;92.07
788;BME280;16074;42.708;23.312;2023-03-13T05:02:42;138316.41;;;-0.01;91.73
788;BME280;16074;42.708;23.312;2023-03-13T05:05:11;138329.50;;;0.04;92.29
788;BME280;16074;42.708;23.312;2023-03-13T05:08:05;138344.97;;;0.11;90.27
788;BME280;16074;42.708;23.312;2023-03-13T05:10:47;138371.19;;;0.22;90.45
788;BME280;16074;42.708;23.312;2023-03-13T05:13:45;138340.19;;;0.09;91.20
788;BME280;16074;42.708;23.312;2023-03-13T05:16:24;138319.97;;;0.00;91.33
788;BME280;16074;42.708;23.312;2023-03-13T05:19:03;138327.09;;;0.03;91.59
788;BME280;16074;42.708;23.312;2023-03-13T05:22:00;138309.25;;;-0.04;92.07
788;BME280;16074;42.708;23.312;2023-03-13T05:24:33;138317.56;;;-0.01;92.10
788;BME280;16074;42.708;23.312;2023-03-13T05:27:22;138312.81;;;-0.03;91.92
788;BME280;16074;42.708;23.312;2023-03-13T05:30:20;138286.59;;;-0.13;91.06
788;BME280;16074;42.708;23.312;2023-03-13T05:33:20;138296.13;;;-0.09;91.49
788;BME280;16074;42.708;23.312;2023-03-13T05:36:08;138305.66;;;-0.05;90.88
788;BME280;16074;42.708;23.312;2023-03-13T05:38:58;138336.66;;;0.07;90.41
788;BME280;16074;42.708;23.312;2023-03-13T05:41:46;138340.19;;;0.09;89.75
788;BME280;16074;42.708;23.312;2023-03-13T05:44:22;138336.66;;;0.07;89.86
788;BME280;16074;42.708;23.312;2023-03-13T05:47:29;138367.63;;;0.20;89.70
788;BME280;16074;42.708;23.312;2023-03-13T05:50:07;138411.72;;;0.39;89.25
788;BME280;16074;42.708;23.312;2023-03-13T05:52:54;138440.34;;;0.51;89.22
788;BME280;16074;42.708;23.312;2023-03-13T05:55:50;138436.75;;;0.49;88.16
788;BME280;16074;42.708;23.312;2023-03-13T05:58:36;138497.56;;;0.75;87.75
788;BME280;16074;42.708;23.312;2023-03-13T06:01:15;138484.44;;;0.69;87.47
788;BME280;16074;42.708;23.312;2023-03-13T06:03:54;138492.78;;;0.73;88.02
788;BME280;16074;42.708;23.312;2023-03-13T06:06:24;138519.03;;;0.84;88.61
788;BME280;16074;42.708;23.312;2023-03-13T06:08:54;138538.13;;;0.92;88.71
788;BME280;16074;42.708;23.312;2023-03-13T06:11:27;138540.50;;;0.93;87.78
788;BME280;16074;42.708;23.312;2023-03-13T06:13:56;138567.91;;;1.04;87.99
788;BME280;16074;42.708;23.312;2023-03-13T06:16:36;138603.72;;;1.19;87.93
788;BME280;16074;42.708;23.312;2023-03-13T06:19:16;138635.91;;;1.32;87.22
788;BME280;16074;42.708;23.312;2023-03-13T06:21:45;138659.78;;;1.42;87.00
788;BME280;16074;42.708;23.312;2023-03-13T06:24:13;138689.59;;;1.55;86.48
788;BME280;16074;42.708;23.312;2023-03-13T06:26:43;138711.09;;;1.64;86.28
788;BME280;16074;42.708;23.312;2023-03-13T06:29:11;138745.69;;;1.78;85.89
788;BME280;16074;42.708;23.312;2023-03-13T06:31:41;138788.69;;;1.96;84.37
788;BME280;16074;42.708;23.312;2023-03-13T06:34:10;138798.25;;;2.00;82.37
788;BME280;16074;42.708;23.312;2023-03-13T06:36:39;138816.16;;;2.08;82.83
788;BME280;16074;42.708;23.312;2023-03-13T06:39:08;138851.97;;;2.23;81.35
788;BME280;16074;42.708;23.312;2023-03-13T06:41:37;138900.94;;;2.43;80.14
788;BME280;16074;42.708;23.312;2023-03-13T06:44:07;138921.28;;;2.51;79.49
788;BME280;16074;42.708;23.312;2023-03-13T06:46:35;138937.97;;;2.58;77.96
788;BME280;16074;42.708;23.312;2023-03-13T06:49:04;138988.16;;;2.79;77.28
788;BME280;16074;42.708;23.312;2023-03-13T06:51:32;139041.94;;;3.02;77.67
788;BME280;16074;42.708;23.312;2023-03-13T06:54:00;139090.94;;;3.22;77.58
788;BME280;16074;42.708;23.312;2023-03-13T06:56:29;139139.94;;;3.43;76.00
788;BME280;16074;42.708;23.312;2023-03-13T06:58:58;139167.50;;;3.54;74.51
788;BME280;16074;42.708;23.312;2023-03-13T07:01:28;139228.47;;;3.79;72.56
788;BME280;16074;42.708;23.312;2023-03-13T07:03:56;139277.53;;;4.00;70.72
788;BME280;16074;42.708;23.312;2023-03-13T07:06:25;139346.91;;;4.29;68.16
788;BME280;16074;42.708;23.312;2023-03-13T07:08:53;139362.47;;;4.35;65.85
788;BME280;16074;42.708;23.312;2023-03-13T07:11:22;139443.88;;;4.69;64.50
788;BME280;16074;42.708;23.312;2023-03-13T07:13:53;139556.41;;;5.16;63.71
788;BME280;16074;42.708;23.312;2023-03-13T07:16:42;139648.69;;;5.54;61.03
788;BME280;16074;42.708;23.312;2023-03-13T07:19:10;139678.63;;;5.67;60.12
788;BME280;16074;42.708;23.312;2023-03-13T07:21:39;139758.97;;;6.00;60.44
788;BME280;16074;42.708;23.312;2023-03-13T07:24:07;139902.88;;;6.60;57.44
788;BME280;16074;42.708;23.312;2023-03-13T07:26:36;139989.28;;;6.96;55.25
788;BME280;16074;42.708;23.312;2023-03-13T07:29:04;140036.06;;;7.15;55.57
788;BME280;16074;42.708;23.312;2023-03-13T07:31:33;140049.25;;;7.20;54.25
788;BME280;16074;42.708;23.312;2023-03-13T07:34:02;140184.94;;;7.77;53.11
788;BME280;16074;42.708;23.312;2023-03-13T07:36:31;140251.00;;;8.04;52.04
788;BME280;16074;42.708;23.312;2023-03-13T07:39:01;140219.75;;;7.91;50.76
788;BME280;16074;42.708;23.312;2023-03-13T07:41:29;140307.50;;;8.27;50.13
788;BME280;16074;42.708;23.312;2023-03-13T07:43:58;140337.53;;;8.40;48.60
788;BME280;16074;42.708;23.312;2023-03-13T07:46:26;140474.53;;;8.97;48.34
788;BME280;16074;42.708;23.312;2023-03-13T07:48:55;140597.19;;;9.47;47.21
788;BME280;16074;42.708;23.312;2023-03-13T07:51:25;140623.66;;;9.58;47.90
788;BME280;16074;42.708;23.312;2023-03-13T07:54:09;140680.22;;;9.82;44.63
788;BME280;16074;42.708;23.312;2023-03-13T07:56:38;140687.44;;;9.85;45.33
788;BME280;16074;42.708;23.312;2023-03-13T07:59:07;140633.28;;;9.62;45.58
788;BME280;16074;42.708;23.312;2023-03-13T08:01:35;140753.66;;;10.12;45.11
788;BME280;16074;42.708;23.312;2023-03-13T08:04:04;140804.25;;;10.33;44.26
788;BME280;16074;42.708;23.312;2023-03-13T08:06:34;140902.97;;;10.74;43.19
788;BME280;16074;42.708;23.312;2023-03-13T08:09:03;140981.25;;;11.06;42.18
788;BME280;16074;42.708;23.312;2023-03-13T08:11:32;141040.28;;;11.31;41.59
788;BME280;16074;42.708;23.312;2023-03-13T08:14:01;141010.16;;;11.18;41.50
788;BME280;16074;42.708;23.312;2023-03-13T08:16:31;141006.53;;;11.17;41.60
788;BME280;16074;42.708;23.312;2023-03-13T08:19:02;141129.50;;;11.68;40.90
788;BME280;16074;42.708;23.312;2023-03-13T08:21:33;141140.38;;;11.72;39.78
788;BME280;16074;42.708;23.312;2023-03-13T08:24:05;141037.88;;;11.30;40.11
788;BME280;16074;42.708;23.312;2023-03-13T08:26:35;141042.69;;;11.32;40.52
788;BME280;16074;42.708;23.312;2023-03-13T08:29:05;141092.09;;;11.52;40.80
788;BME280;16074;42.708;23.312;2023-03-13T08:31:36;141070.41;;;11.43;40.44
788;BME280;16074;42.708;23.312;2023-03-13T08:34:05;141169.31;;;11.84;39.53
788;BME280;16074;42.708;23.312;2023-03-13T08:36:34;141184.97;;;11.90;39.32
788;BME280;16074;42.708;23.312;2023-03-13T08:39:06;141275.41;;;12.28;39.49
788;BME280;16074;42.708;23.312;2023-03-13T08:41:36;141276.59;;;12.28;38.50
788;BME280;16074;42.708;23.312;2023-03-13T08:44:07;141299.53;;;12.38;39.23
788;BME280;16074;42.708;23.312;2023-03-13T08:46:36;141301.94;;;12.39;38.03
788;BME280;16074;42.708;23.312;2023-03-13T08:49:05;141273.00;;;12.27;37.99
788;BME280;16074;42.708;23.312;2023-03-13T08:51:34;141333.28;;;12.52;37.34
788;BME280;16074;42.708;23.312;2023-03-13T08:54:04;141414.09;;;12.85;37.10
788;BME280;16074;42.708;23.312;2023-03-13T08:56:33;141379.13;;;12.71;37.37
788;BME280;16074;42.708;23.312;2023-03-13T08:59:03;141379.13;;;12.71;37.53
788;BME280;16074;42.708;23.312;2023-03-13T09:01:33;141479.34;;;13.12;36.97
788;BME280;16074;42.708;23.312;2023-03-13T09:04:02;141314.00;;;12.44;37.75
788;BME280;16074;42.708;23.312;2023-03-13T09:06:31;141359.81;;;12.63;38.06
788;BME280;16074;42.708;23.312;2023-03-13T09:08:59;141287.47;;;12.33;38.70
788;BME280;16074;42.708;23.312;2023-03-13T09:11:29;141382.78;;;12.72;37.49
788;BME280;16074;42.708;23.312;2023-03-13T09:13:58;141446.78;;;12.99;36.18
788;BME280;16074;42.708;23.312;2023-03-13T09:16:28;141293.47;;;12.35;36.86
788;BME280;16074;42.708;23.312;2023-03-13T09:18:57;141386.38;;;12.74;36.87
788;BME280;16074;42.708;23.312;2023-03-13T09:21:27;141454.00;;;13.02;37.10
788;BME280;16074;42.708;23.312;2023-03-13T09:23:56;141519.16;;;13.28;37.02
788;BME280;16074;42.708;23.312;2023-03-13T09:26:25;141562.66;;;13.46;36.81
788;BME280;16074;42.708;23.312;2023-03-13T09:28:56;141590.41;;;13.58;36.00
788;BME280;16074;42.708;23.312;2023-03-13T09:31:27;141695.47;;;14.01;36.63
788;BME280;16074;42.708;23.312;2023-03-13T09:33:56;141772.81;;;14.33;36.30
788;BME280;16074;42.708;23.312;2023-03-13T09:36:25;141754.72;;;14.26;34.44
788;BME280;16074;42.708;23.312;2023-03-13T09:38:54;141793.41;;;14.41;34.70
788;BME280;16074;42.708;23.312;2023-03-13T09:41:26;141813.94;;;14.50;35.13
788;BME280;16074;42.708;23.312;2023-03-13T09:44:04;141850.19;;;14.65;34.74
788;BME280;16074;42.708;23.312;2023-03-13T09:46:38;141809.09;;;14.48;34.36
788;BME280;16074;42.708;23.312;2023-03-13T09:49:17;141758.31;;;14.27;34.38
788;BME280;16074;42.708;23.312;2023-03-13T09:51:53;141815.13;;;14.50;34.05
788;BME280;16074;42.708;23.312;2023-03-13T09:54:28;141859.88;;;14.69;33.59
788;BME280;16074;42.708;23.312;2023-03-13T09:57:05;141797.00;;;14.43;34.09
788;BME280;16074;42.708;23.312;2023-03-13T09:59:44;141719.66;;;14.11;35.09
788;BME280;16074;42.708;23.312;2023-03-13T10:02:20;141795.81;;;14.42;33.93
788;BME280;16074;42.708;23.312;2023-03-13T10:04:55;141826.00;;;14.55;33.65
788;BME280;16074;42.708;23.312;2023-03-13T10:07:25;141838.09;;;14.60;34.05
788;BME280;16074;42.708;23.312;2023-03-13T10:09:53;141865.88;;;14.71;34.26
788;BME280;16074;42.708;23.312;2023-03-13T10:12:23;141833.28;;;14.58;34.86
788;BME280;16074;42.708;23.312;2023-03-13T10:15:06;141804.25;;;14.46;34.71
788;BME280;16074;42.708;23.312;2023-03-13T10:17:43;141834.47;;;14.58;34.80
788;BME280;16074;42.708;23.312;2023-03-13T10:20:21;141891.25;;;14.82;34.02
788;BME280;16074;42.708;23.312;2023-03-13T10:22:55;141869.53;;;14.73;34.71
788;BME280;16074;42.708;23.312;2023-03-13T10:25:28;141968.66;;;15.14;33.28
788;BME280;16074;42.708;23.312;2023-03-13T10:27:58;141885.25;;;14.79;33.39
788;BME280;16074;42.708;23.312;2023-03-13T10:30:29;141896.09;;;14.84;34.00
788;BME280;16074;42.708;23.312;2023-03-13T10:32:59;141946.88;;;15.05;34.21
788;BME280;16074;42.708;23.312;2023-03-13T10:35:34;142019.47;;;15.35;33.42
788;BME280;16074;42.708;23.312;2023-03-13T10:38:04;142094.50;;;15.65;33.61
788;BME280;16074;42.708;23.312;2023-03-13T10:40:34;142088.41;;;15.63;33.66
788;BME280;16074;42.708;23.312;2023-03-13T10:43:04;142165.88;;;15.95;32.55
788;BME280;16074;42.708;23.312;2023-03-13T10:45:35;142216.69;;;16.16;32.35
788;BME280;16074;42.708;23.312;2023-03-13T10:48:11;142239.69;;;16.25;31.90
788;BME280;16074;42.708;23.312;2023-03-13T10:50:41;142280.91;;;16.42;32.69
788;BME280;16074;42.708;23.312;2023-03-13T10:53:24;142318.44;;;16.58;32.05
788;BME280;16074;42.708;23.312;2023-03-13T10:55:53;142288.13;;;16.45;32.24
788;BME280;16074;42.708;23.312;2023-03-13T10:58:26;142363.22;;;16.76;31.49
788;BME280;16074;42.708;23.312;2023-03-13T11:01:14;142340.25;;;16.67;31.81
788;BME280;16074;42.708;23.312;2023-03-13T11:03:45;142398.34;;;16.90;31.34
788;BME280;16074;42.708;23.312;2023-03-13T11:06:24;142469.81;;;17.20;31.39
788;BME280;16074;42.708;23.312;2023-03-13T11:09:02;142462.53;;;17.17;30.52
788;BME280;16074;42.708;23.312;2023-03-13T11:11:42;142381.38;;;16.83;31.23
788;BME280;16074;42.708;23.312;2023-03-13T11:14:14;142411.69;;;16.96;31.63
788;BME280;16074;42.708;23.312;2023-03-13T11:16:47;142461.34;;;17.16;30.99
788;BME280;16074;42.708;23.312;2023-03-13T11:19:34;142542.56;;;17.50;31.09
788;BME280;16074;42.708;23.312;2023-03-13T11:22:25;142609.22;;;17.77;30.45
788;BME280;16074;42.708;23.312;2023-03-13T11:25:02;142678.31;;;18.05;30.02
788;BME280;16074;42.708;23.312;2023-03-13T11:27:34;142702.53;;;18.15;29.92
788;BME280;16074;42.708;23.312;2023-03-13T11:30:15;142724.41;;;18.24;30.44
788;BME280;16074;42.708;23.312;2023-03-13T11:32:50;142769.25;;;18.43;29.60
788;BME280;16074;42.708;23.312;2023-03-13T11:35:35;142808.09;;;18.59;29.18
788;BME280;16074;42.708;23.312;2023-03-13T11:38:08;142793.53;;;18.53;29.58
788;BME280;16074;42.708;23.312;2023-03-13T11:40:47;142730.50;;;18.27;28.92
788;BME280;16074;42.708;23.312;2023-03-13T11:43:27;142759.59;;;18.39;29.02
788;BME280;16074;42.708;23.312;2023-03-13T11:46:10;142512.25;;;17.37;28.90
788;BME280;16074;42.708;23.312;2023-03-13T11:49:23;142587.41;;;17.68;29.52
788;BME280;16074;42.708;23.312;2023-03-13T11:52:10;142624.97;;;17.84;28.97
788;BME280;16074;42.708;23.312;2023-03-13T11:54:58;142588.59;;;17.69;29.10
788;BME280;16074;42.708;23.312;2023-03-13T11:57:34;142564.34;;;17.59;29.81
788;BME280;16074;42.708;23.312;2023-03-13T12:00:16;142542.56;;;17.50;29.81
788;BME280;16074;42.708;23.312;2023-03-13T12:02:49;142581.31;;;17.66;30.39
788;BME280;16074;42.708;23.312;2023-03-13T12:05:22;142578.88;;;17.65;29.80
788;BME280;16074;42.708;23.312;2023-03-13T12:07:55;142530.44;;;17.45;30.85
788;BME280;16074;42.708;23.312;2023-03-13T12:10:27;142560.72;;;17.57;30.47
788;BME280;16074;42.708;23.312;2023-03-13T12:13:02;142617.69;;;17.81;30.11
788;BME280;16074;42.708;23.312;2023-03-13T12:15:35;142685.59;;;18.08;30.20
788;BME280;16074;42.708;23.312;2023-03-13T12:18:11;142754.75;;;18.37;29.84
788;BME280;16074;42.708;23.312;2023-03-13T12:20:48;142795.94;;;18.54;29.40
788;BME280;16074;42.708;23.312;2023-03-13T12:23:27;142883.31;;;18.90;29.06
788;BME280;16074;42.708;23.312;2023-03-13T12:26:03;142930.63;;;19.09;28.86
788;BME280;16074;42.708;23.312;2023-03-13T12:28:36;142981.63;;;19.30;28.51
788;BME280;16074;42.708;23.312;2023-03-13T12:31:16;143065.38;;;19.64;28.26
788;BME280;16074;42.708;23.312;2023-03-13T12:33:51;143058.09;;;19.61;27.42
788;BME280;16074;42.708;23.312;2023-03-13T12:36:25;143047.19;;;19.57;26.98
788;BME280;16074;42.708;23.312;2023-03-13T12:39:01;143073.91;;;19.68;27.82
788;BME280;16074;42.708;23.312;2023-03-13T12:41:39;142981.63;;;19.30;27.69
788;BME280;16074;42.708;23.312;2023-03-13T12:44:11;143008.34;;;19.41;27.83
788;BME280;16074;42.708;23.312;2023-03-13T12:46:45;143003.47;;;19.39;27.37
788;BME280;16074;42.708;23.312;2023-03-13T12:52:50;142980.44;;;19.29;27.48
788;BME280;16074;42.708;23.312;2023-03-13T12:55:45;143035.03;;;19.52;28.03
788;BME280;16074;42.708;23.312;2023-03-13T12:58:28;143087.25;;;19.73;28.18
788;BME280;16074;42.708;23.312;2023-03-13T13:01:01;143163.78;;;20.05;27.13
788;BME280;16074;42.708;23.312;2023-03-13T13:03:33;143152.88;;;20.00;26.67
788;BME280;16074;42.708;23.312;2023-03-13T13:06:06;143105.47;;;19.81;26.54
788;BME280;16074;42.708;23.312;2023-03-13T13:08:38;143180.78;;;20.12;27.13
788;BME280;16074;42.708;23.312;2023-03-13T13:14:54;143214.81;;;20.26;27.43
788;BME280;16074;42.708;23.312;2023-03-13T13:17:41;143285.25;;;20.54;26.96
788;BME280;16074;42.708;23.312;2023-03-13T13:20:29;143320.47;;;20.69;26.16
788;BME280;16074;42.708;23.312;2023-03-13T13:23:29;143364.28;;;20.87;26.58
788;BME280;16074;42.708;23.312;2023-03-13T13:32:39;143465.16;;;21.28;26.16
788;BME280;16074;42.708;23.312;2023-03-13T13:35:32;143479.75;;;21.34;25.90
788;BME280;16074;42.708;23.312;2023-03-13T13:38:20;143602.59;;;21.84;25.14
788;BME280;16074;42.708;23.312;2023-03-13T13:41:00;143597.72;;;21.82;25.08
788;BME280;16074;42.708;23.312;2023-03-13T13:43:30;143579.50;;;21.75;25.12
788;BME280;16074;42.708;23.312;2023-03-13T13:46:02;143499.22;;;21.42;24.47
788;BME280;16074;42.708;23.312;2023-03-13T13:48:36;143451.81;;;21.23;25.07
788;BME280;16074;42.708;23.312;2023-03-13T13:51:22;143429.94;;;21.14;25.50
788;BME280;16074;42.708;23.312;2023-03-13T13:53:54;143472.47;;;21.31;25.18
788;BME280;16074;42.708;23.312;2023-03-13T13:56:31;143558.84;;;21.67;24.59